createdAt,value
2023-04-07T00:00:32.937Z,99369.33
2023-04-07T00:03:02.635Z,99373.27
2023-04-07T00:05:31.762Z,99373.09
2023-04-07T00:07:59.980Z,99376.54
2023-04-07T00:10:28.809Z,99374.11
2023-04-07T00:12:57.124Z,99373.88
2023-04-07T00:15:25.141Z,99374.52
2023-04-07T00:17:56.490Z,99372.86
2023-04-07T00:20:25.444Z,99372.10
2023-04-07T00:22:54.131Z,99372.19
2023-04-07T00:25:23.304Z,99382.36
2023-04-07T00:27:51.806Z,99379.34
2023-04-07T00:30:21.125Z,99384.44
2023-04-07T00:32:51.560Z,99384.44
2023-04-07T00:35:20.039Z,99388.92
2023-04-07T00:37:49.141Z,99385.73
2023-04-07T00:40:17.745Z,99387.40
2023-04-07T00:42:46.521Z,99387.34
2023-04-07T00:45:14.805Z,99383.84
2023-04-07T00:47:43.621Z,99382.48
2023-04-07T00:50:12.085Z,99385.51
2023-04-07T00:52:40.391Z,99387.80
2023-04-07T00:55:09.743Z,99390.63
2023-04-07T00:57:39.035Z,99392.08
2023-04-07T01:00:09.953Z,99398.70
2023-04-07T01:02:45.233Z,99398.00
2023-04-07T01:05:17.565Z,99399.40
2023-04-07T01:08:04.881Z,99400.44
2023-04-07T01:10:39.684Z,99403.55
2023-04-07T01:13:52.979Z,99409.27
2023-04-07T01:16:52.471Z,99415.11
2023-04-07T01:19:35.057Z,99420.14
2023-04-07T01:22:14.088Z,99424.42
2023-04-07T01:25:07.480Z,99424.20
2023-04-07T01:27:43.245Z,99427.14
2023-04-07T01:30:13.006Z,99432.27
2023-04-07T01:32:44.965Z,99432.99
2023-04-07T01:35:13.576Z,99434.84
2023-04-07T01:37:41.964Z,99438.13
2023-04-07T01:40:11.304Z,99441.29
2023-04-07T01:42:39.807Z,99445.21
2023-04-07T01:45:08.466Z,99441.81
2023-04-07T01:47:37.860Z,99441.14
2023-04-07T01:50:09.159Z,99446.58
2023-04-07T01:52:37.470Z,99446.28
2023-04-07T01:55:06.494Z,99449.55
2023-04-07T01:57:38.968Z,99450.45
2023-04-07T02:00:14.426Z,99447.49
2023-04-07T02:02:49.834Z,99450.13
2023-04-07T02:05:19.953Z,99451.04
2023-04-07T02:07:59.916Z,99454.83
2023-04-07T02:10:37.288Z,99454.52
2023-04-07T02:13:09.136Z,99458.95
2023-04-07T02:15:37.268Z,99461.10
2023-04-07T02:18:05.820Z,99462.48
2023-04-07T02:20:34.547Z,99464.80
2023-04-07T02:23:02.642Z,99461.73
2023-04-07T02:25:32.129Z,99462.92
2023-04-07T02:28:00.868Z,99460.49
2023-04-07T02:30:28.946Z,99459.62
2023-04-07T02:32:57.999Z,99458.38
2023-04-07T02:35:26.422Z,99459.45
2023-04-07T02:37:54.869Z,99458.16
2023-04-07T02:40:23.170Z,99465.80
2023-04-07T02:42:57.412Z,99469.60
2023-04-07T02:45:25.399Z,99474.80
2023-04-07T02:47:54.387Z,99474.55
2023-04-07T02:50:22.502Z,99473.29
2023-04-07T02:52:50.912Z,99477.73
2023-04-07T02:55:19.088Z,99476.80
2023-04-07T02:57:47.814Z,99481.96
2023-04-07T03:00:31.402Z,99481.63
2023-04-07T03:03:08.786Z,99483.55
2023-04-07T03:05:39.427Z,99487.36
2023-04-07T03:08:07.872Z,99484.44
2023-04-07T03:10:37.915Z,99485.56
2023-04-07T03:13:08.580Z,99490.13
2023-04-07T03:15:37.261Z,99488.73
2023-04-07T03:18:06.915Z,99491.52
2023-04-07T03:20:36.028Z,99494.84
2023-04-07T03:23:08.950Z,99500.05
2023-04-07T03:25:39.989Z,99505.13
2023-04-07T03:28:08.082Z,99509.86
2023-04-07T03:30:41.138Z,99513.81
2023-04-07T03:33:10.124Z,99513.74
2023-04-07T03:35:38.310Z,99514.13
2023-04-07T03:38:08.184Z,99518.36
2023-04-07T03:40:37.695Z,99520.86
2023-04-07T03:43:06.076Z,99527.63
2023-04-07T03:45:34.868Z,99530.17
2023-04-07T03:48:06.052Z,99532.81
2023-04-07T03:50:34.185Z,99532.46
2023-04-07T03:53:16.788Z,99540.58
2023-04-07T03:55:45.017Z,99542.70
2023-04-07T03:58:19.942Z,99548.83
2023-04-07T04:00:48.839Z,99548.90
2023-04-07T04:03:18.350Z,99553.59
2023-04-07T04:05:56.452Z,99554.63
2023-04-07T04:08:31.266Z,99555.31
2023-04-07T04:10:59.603Z,99557.52
2023-04-07T04:13:36.491Z,99566.52
2023-04-07T04:16:06.790Z,99569.98
2023-04-07T04:18:35.784Z,99572.36
2023-04-07T04:21:07.088Z,99572.50
2023-04-07T04:23:36.286Z,99574.07
2023-04-07T04:26:04.857Z,99578.86
2023-04-07T04:28:38.518Z,99581.29
2023-04-07T04:31:09.047Z,99583.27
2023-04-07T04:33:41.414Z,99591.14
2023-04-07T04:36:10.642Z,99593.82
2023-04-07T04:38:39.038Z,99601.49
2023-04-07T04:41:21.408Z,99601.51
2023-04-07T04:43:52.283Z,99608.11
2023-04-07T04:46:24.502Z,99610.69
2023-04-07T04:48:54.397Z,99613.61
2023-04-07T04:51:24.132Z,99617.23
2023-04-07T04:53:56.699Z,99618.11
2023-04-07T04:56:26.073Z,99621.02
2023-04-07T04:58:55.086Z,99625.95
2023-04-07T05:01:33.365Z,99627.48
2023-04-07T05:04:10.568Z,99624.83
2023-04-07T05:06:41.338Z,99625.77
2023-04-07T05:09:14.274Z,99624.95
2023-04-07T05:11:48.150Z,99626.97
2023-04-07T05:14:16.568Z,99628.76
2023-04-07T05:16:49.773Z,99633.48
2023-04-07T05:19:24.306Z,99641.67
2023-04-07T05:21:54.214Z,99645.33
2023-04-07T05:24:27.544Z,99647.06
2023-04-07T05:26:58.573Z,99655.19
2023-04-07T05:29:27.564Z,99653.60
2023-04-07T05:31:57.094Z,99653.59
2023-04-07T05:34:26.025Z,99661.73
2023-04-07T05:36:56.116Z,99666.44
2023-04-07T05:39:24.560Z,99665.04
2023-04-07T05:41:55.283Z,99668.65
2023-04-07T05:44:27.686Z,99673.64
2023-04-07T05:46:56.476Z,99673.73
2023-04-07T05:49:27.974Z,99674.73
2023-04-07T05:52:07.571Z,99679.27
2023-04-07T05:54:41.013Z,99681.98
2023-04-07T05:57:11.543Z,99682.82
2023-04-07T05:59:42.480Z,99681.64
2023-04-07T06:02:11.205Z,99688.00
2023-04-07T06:04:40.554Z,99685.49
2023-04-07T06:07:10.422Z,99691.59
2023-04-07T06:09:38.612Z,99696.46
2023-04-07T06:12:07.072Z,99700.15
2023-04-07T06:14:35.585Z,99696.73
2023-04-07T06:17:09.896Z,99692.51
2023-04-07T06:19:39.803Z,99695.88
2023-04-07T06:22:08.617Z,99692.24
2023-04-07T06:24:36.889Z,99696.14
2023-04-07T06:27:05.098Z,99691.94
2023-04-07T06:29:34.292Z,99696.61
2023-04-07T06:32:04.567Z,99702.11
2023-04-07T06:34:43.572Z,99702.58
2023-04-07T06:37:11.749Z,99701.83
2023-04-07T06:39:41.998Z,99701.09
2023-04-07T06:42:10.751Z,99701.14
2023-04-07T06:44:42.927Z,99702.42
2023-04-07T06:47:11.748Z,99701.09
2023-04-07T06:49:42.970Z,99701.77
2023-04-07T06:52:11.311Z,99709.23
2023-04-07T06:54:39.513Z,99708.53
2023-04-07T06:57:12.291Z,99707.80
2023-04-07T06:59:40.616Z,99711.33
2023-04-07T07:02:09.807Z,99710.42
2023-04-07T07:04:38.941Z,99708.43
2023-04-07T07:07:07.020Z,99709.98
2023-04-07T07:09:35.908Z,99709.83
2023-04-07T07:12:04.461Z,99710.44
2023-04-07T07:14:33.252Z,99710.91
2023-04-07T07:17:01.499Z,99709.00
2023-04-07T07:19:29.812Z,99711.59
2023-04-07T07:21:57.964Z,99711.39
2023-04-07T07:24:26.241Z,99708.05
2023-04-07T07:26:55.328Z,99713.43
2023-04-07T07:29:23.478Z,99713.33
2023-04-07T07:31:53.374Z,99715.65
2023-04-07T07:34:22.612Z,99713.86
2023-04-07T07:36:56.593Z,99716.24
2023-04-07T07:39:24.766Z,99719.62
2023-04-07T07:41:53.121Z,99722.91
2023-04-07T07:44:22.931Z,99725.20
2023-04-07T07:46:51.472Z,99730.33
2023-04-07T07:49:21.631Z,99732.98
2023-04-07T07:51:50.043Z,99736.73
2023-04-07T07:54:19.191Z,99741.37
2023-04-07T07:56:47.337Z,99739.55
2023-04-07T07:59:17.774Z,99739.98
2023-04-07T08:01:49.742Z,99742.27
2023-04-07T08:04:18.583Z,99748.84
2023-04-07T08:06:47.442Z,99751.52
2023-04-07T08:09:16.301Z,99749.81
2023-04-07T08:11:44.567Z,99742.74
2023-04-07T08:14:12.994Z,99746.09
2023-04-07T08:16:41.441Z,99748.55
2023-04-07T08:19:09.859Z,99749.60
2023-04-07T08:21:39.156Z,99751.23
2023-04-07T08:24:07.418Z,99755.40
2023-04-07T08:26:35.602Z,99754.33
2023-04-07T08:29:03.697Z,99753.77
2023-04-07T08:31:32.821Z,99755.45
2023-04-07T08:34:01.018Z,99753.61
2023-04-07T08:36:30.292Z,99755.50
2023-04-07T08:39:00.350Z,99755.70
2023-04-07T08:41:39.509Z,99756.08
2023-04-07T08:44:08.029Z,99755.75
2023-04-07T08:46:36.212Z,99758.52
2023-04-07T08:49:04.489Z,99756.25
2023-04-07T08:51:34.442Z,99761.33
2023-04-07T08:54:11.040Z,99758.30
2023-04-07T08:56:43.730Z,99758.04
2023-04-07T08:59:13.247Z,99761.02
2023-04-07T09:01:42.648Z,99762.69
2023-04-07T09:04:11.960Z,99763.88
2023-04-07T09:06:40.490Z,99763.71
2023-04-07T09:09:08.648Z,99763.48
2023-04-07T09:11:38.232Z,99763.00
2023-04-07T09:14:06.376Z,99760.80
2023-04-07T09:16:34.498Z,99761.48
2023-04-07T09:19:02.639Z,99764.60
2023-04-07T09:21:49.999Z,99763.73
2023-04-07T09:24:25.200Z,99762.96
2023-04-07T09:27:08.716Z,99765.00
2023-04-07T09:29:37.881Z,99763.52
2023-04-07T09:32:06.827Z,99764.84
2023-04-07T09:34:38.475Z,99766.25
2023-04-07T09:37:09.768Z,99766.80
2023-04-07T09:39:52.421Z,99771.83
2023-04-07T09:42:20.969Z,99770.28
2023-04-07T09:44:49.158Z,99767.92
2023-04-07T09:47:18.147Z,99767.03
2023-04-07T09:49:51.324Z,99765.52
2023-04-07T09:52:20.824Z,99761.76
2023-04-07T09:54:49.341Z,99761.76
2023-04-07T09:57:18.722Z,99757.98
2023-04-07T09:59:50.275Z,99759.20
2023-04-07T10:02:18.766Z,99760.91
2023-04-07T10:04:47.392Z,99763.79
2023-04-07T10:07:15.574Z,99762.34
2023-04-07T10:09:47.657Z,99768.36
2023-04-07T10:12:16.001Z,99766.01
2023-04-07T10:14:47.220Z,99766.80
2023-04-07T10:17:18.798Z,99773.54
2023-04-07T10:19:47.304Z,99769.73
2023-04-07T10:22:15.536Z,99772.05
2023-04-07T10:24:57.525Z,99770.93
2023-04-07T10:27:31.073Z,99772.35
2023-04-07T10:29:59.828Z,99772.24
2023-04-07T10:32:27.849Z,99770.59
2023-04-07T10:34:59.180Z,99771.59
2023-04-07T10:37:28.028Z,99772.92
2023-04-07T10:40:21.848Z,99774.26
2023-04-07T10:42:49.910Z,99775.58
2023-04-07T10:45:18.011Z,99774.08
2023-04-07T10:48:09.754Z,99777.41
2023-04-07T10:50:38.762Z,99775.92
2023-04-07T10:53:08.540Z,99773.26
2023-04-07T10:55:46.345Z,99778.38
2023-04-07T10:58:29.115Z,99777.96
2023-04-07T11:01:04.837Z,99774.55
2023-04-07T11:03:35.073Z,99776.73
2023-04-07T11:06:10.232Z,99777.69
2023-04-07T11:08:38.838Z,99777.77
2023-04-07T11:11:14.188Z,99776.54
2023-04-07T11:13:48.893Z,99778.42
2023-04-07T11:16:20.930Z,99776.35
2023-04-07T11:18:50.996Z,99774.95
2023-04-07T11:21:19.417Z,99773.05
2023-04-07T11:23:48.355Z,99772.91
2023-04-07T11:26:18.172Z,99773.45
2023-04-07T11:28:49.514Z,99770.94
2023-04-07T11:31:27.719Z,99768.06
2023-04-07T11:34:02.157Z,99766.30
2023-04-07T11:36:40.697Z,99768.39
2023-04-07T11:39:19.636Z,99768.17
2023-04-07T11:41:48.558Z,99767.34
2023-04-07T11:44:16.717Z,99764.09
2023-04-07T11:46:55.320Z,99766.27
2023-04-07T11:49:28.395Z,99762.80
2023-04-07T11:52:09.443Z,99764.23
2023-04-07T11:54:42.511Z,99764.65
2023-04-07T11:57:13.112Z,99764.25
2023-04-07T11:59:43.803Z,99763.64
2023-04-07T12:02:11.992Z,99767.52
2023-04-07T12:04:56.269Z,99767.46
2023-04-07T12:07:26.256Z,99766.27
2023-04-07T12:09:55.990Z,99763.80
2023-04-07T12:12:28.574Z,99763.17
2023-04-07T12:15:02.712Z,99760.16
2023-04-07T12:17:31.888Z,99761.91
2023-04-07T12:20:08.293Z,99760.23
2023-04-07T12:22:36.648Z,99760.86
2023-04-07T12:25:05.036Z,99764.35
2023-04-07T12:27:42.647Z,99761.20
2023-04-07T12:30:13.342Z,99760.21
2023-04-07T12:32:42.044Z,99759.52
2023-04-07T12:35:10.724Z,99761.30
2023-04-07T12:37:39.296Z,99757.70
2023-04-07T12:40:08.153Z,99755.32
2023-04-07T12:42:37.149Z,99752.32
2023-04-07T12:45:05.856Z,99752.73
2023-04-07T12:47:35.365Z,99750.69
2023-04-07T12:50:04.080Z,99750.17
2023-04-07T12:52:37.501Z,99750.30
2023-04-07T12:55:06.094Z,99748.29
2023-04-07T12:57:34.214Z,99750.73
2023-04-07T13:00:02.626Z,99750.46
2023-04-07T13:02:36.898Z,99752.53
2023-04-07T13:05:06.076Z,99755.35
2023-04-07T13:07:36.417Z,99754.38
2023-04-07T13:10:07.288Z,99753.63
2023-04-07T13:12:35.940Z,99753.85
2023-04-07T13:15:09.208Z,99754.67
2023-04-07T13:17:38.716Z,99757.57
2023-04-07T13:20:07.904Z,99756.50
2023-04-07T13:22:36.301Z,99754.64
2023-04-07T13:25:04.907Z,99755.87
2023-04-07T13:27:34.112Z,99754.84
2023-04-07T13:30:02.461Z,99753.27
2023-04-07T13:32:33.472Z,99752.78
2023-04-07T13:35:01.850Z,99750.92
2023-04-07T13:37:30.077Z,99752.10
2023-04-07T13:39:58.342Z,99751.80
2023-04-07T13:42:26.801Z,99752.55
2023-04-07T13:44:58.170Z,99750.23
2023-04-07T13:47:27.043Z,99754.23
2023-04-07T13:49:55.861Z,99756.63
2023-04-07T13:52:24.281Z,99757.96
2023-04-07T13:54:52.377Z,99756.75
2023-04-07T13:57:23.416Z,99751.94
2023-04-07T13:59:54.249Z,99754.59
2023-04-07T14:02:24.310Z,99756.85
2023-04-07T14:04:52.669Z,99753.75
2023-04-07T14:07:23.193Z,99749.40
2023-04-07T14:09:51.674Z,99751.73
2023-04-07T14:12:23.711Z,99753.48
2023-04-07T14:14:55.607Z,99752.11
2023-04-07T14:17:24.807Z,99754.28
2023-04-07T14:19:52.903Z,99752.30
2023-04-07T14:22:26.986Z,99755.01
2023-04-07T14:25:00.983Z,99752.32
2023-04-07T14:28:03.129Z,99752.45
2023-04-07T14:30:31.743Z,99754.42
2023-04-07T14:33:01.465Z,99757.61
2023-04-07T14:35:31.881Z,99760.77
2023-04-07T14:38:00.570Z,99757.47
2023-04-07T14:40:33.620Z,99761.30
2023-04-07T14:43:07.312Z,99759.49
2023-04-07T14:45:35.882Z,99755.31
2023-04-07T14:48:05.970Z,99756.23
2023-04-07T14:50:34.406Z,99761.36
2023-04-07T14:53:03.614Z,99756.42
2023-04-07T14:55:32.192Z,99761.88
2023-04-07T14:58:00.296Z,99762.51
2023-04-07T15:00:28.994Z,99762.19
2023-04-07T15:03:16.391Z,99762.25
2023-04-07T15:05:44.718Z,99756.98
2023-04-07T15:08:14.272Z,99754.60
2023-04-07T15:10:42.793Z,99756.61
2023-04-07T15:13:11.192Z,99760.59
2023-04-07T15:15:39.264Z,99757.70
2023-04-07T15:18:07.558Z,99758.80
2023-04-07T15:20:35.722Z,99765.93
2023-04-07T15:23:03.739Z,99764.02
2023-04-07T15:25:32.350Z,99770.23
2023-04-07T15:28:00.697Z,99767.88
2023-04-07T15:30:29.139Z,99772.22
2023-04-07T15:33:01.151Z,99771.02
2023-04-07T15:35:30.189Z,99769.62
2023-04-07T15:37:58.326Z,99773.15
2023-04-07T15:40:26.332Z,99771.87
2023-04-07T15:42:54.433Z,99767.28
2023-04-07T15:45:22.724Z,99770.90
2023-04-07T15:47:52.809Z,99765.54
2023-04-07T15:50:20.886Z,99771.79
2023-04-07T15:52:49.368Z,99771.70
2023-04-07T15:55:17.429Z,99774.29
2023-04-07T15:57:46.870Z,99774.40
2023-04-07T16:00:15.548Z,99770.24
2023-04-07T16:02:45.376Z,99771.02
2023-04-07T16:05:13.798Z,99769.70
2023-04-07T16:07:41.862Z,99769.45
2023-04-07T16:10:12.524Z,99772.82
2023-04-07T16:12:42.431Z,99770.99
2023-04-07T16:15:11.759Z,99771.52
2023-04-07T16:17:42.764Z,99768.38
2023-04-07T16:20:14.936Z,99769.39
2023-04-07T16:22:43.991Z,99767.45
2023-04-07T16:25:12.399Z,99767.19
2023-04-07T16:27:40.824Z,99765.89
2023-04-07T16:30:14.319Z,99767.70
2023-04-07T16:32:46.724Z,99771.77
2023-04-07T16:35:15.203Z,99771.70
2023-04-07T16:37:47.199Z,99775.60
2023-04-07T16:40:16.232Z,99778.02
2023-04-07T16:42:44.380Z,99783.44
2023-04-07T16:45:13.550Z,99786.07
2023-04-07T16:47:44.580Z,99787.13
2023-04-07T16:50:12.867Z,99788.55
2023-04-07T16:52:41.412Z,99794.15
2023-04-07T16:55:09.732Z,99800.21
2023-04-07T16:57:38.961Z,99807.39
2023-04-07T17:00:08.024Z,99815.53
2023-04-07T17:02:37.398Z,99823.44
2023-04-07T17:05:06.261Z,99828.86
2023-04-07T17:07:34.566Z,99832.65
2023-04-07T17:10:07.513Z,99837.38
2023-04-07T17:12:36.849Z,99833.99
2023-04-07T17:15:11.207Z,99836.20
2023-04-07T17:17:40.594Z,99835.89
2023-04-07T17:20:09.600Z,99845.33
2023-04-07T17:22:37.844Z,99847.27
2023-04-07T17:25:07.503Z,99847.48
2023-04-07T17:27:36.172Z,99851.02
2023-04-07T17:30:08.499Z,99856.39
2023-04-07T17:32:37.588Z,99863.80
2023-04-07T17:35:06.091Z,99873.86
2023-04-07T17:37:34.554Z,99869.71
2023-04-07T17:40:03.000Z,99874.07
2023-04-07T17:42:33.332Z,99877.87
2023-04-07T17:45:03.310Z,99883.58
2023-04-07T17:47:31.804Z,99889.98
2023-04-07T17:50:00.376Z,99893.55
2023-04-07T17:52:31.629Z,99895.29
2023-04-07T17:55:00.726Z,99898.29
2023-04-07T17:57:29.227Z,99900.96
2023-04-07T17:59:57.253Z,99907.36
2023-04-07T18:02:27.055Z,99909.98
2023-04-07T18:04:57.796Z,99913.27
2023-04-07T18:07:25.827Z,99913.14
2023-04-07T18:09:54.070Z,99918.05
2023-04-07T18:12:23.341Z,99922.42
2023-04-07T18:14:51.861Z,99921.19
2023-04-07T18:17:19.939Z,99911.58
2023-04-07T18:19:48.581Z,99915.77
2023-04-07T18:22:18.058Z,99909.63
2023-04-07T18:24:46.775Z,99913.66
2023-04-07T18:27:15.023Z,99914.38
2023-04-07T18:29:46.904Z,99916.54
2023-04-07T18:32:15.033Z,99918.04
2023-04-07T18:34:47.319Z,99917.06
2023-04-07T18:37:16.695Z,99912.93
2023-04-07T18:39:44.993Z,99910.48
2023-04-07T18:42:13.308Z,99915.70
2023-04-07T18:44:41.540Z,99911.63
2023-04-07T18:47:09.751Z,99910.16
2023-04-07T18:49:39.835Z,99907.28
2023-04-07T18:52:08.996Z,99903.70
2023-04-07T18:54:37.229Z,99905.55
2023-04-07T18:57:05.679Z,99905.05
2023-04-07T18:59:34.298Z,99908.89
2023-04-07T19:02:02.497Z,99907.80
2023-04-07T19:04:31.436Z,99901.07
2023-04-07T19:07:00.164Z,99904.29
2023-04-07T19:09:29.728Z,99904.61
2023-04-07T19:11:58.104Z,99904.75
2023-04-07T19:14:26.644Z,99904.91
2023-04-07T19:16:54.855Z,99903.14
2023-04-07T19:19:23.364Z,99905.88
2023-04-07T19:21:57.687Z,99905.14
2023-04-07T19:24:26.730Z,99907.55
2023-04-07T19:26:54.805Z,99907.55
2023-04-07T19:29:23.471Z,99909.23
2023-04-07T19:31:53.078Z,99913.06
2023-04-07T19:34:21.182Z,99908.29
2023-04-07T19:36:50.086Z,99908.23
2023-04-07T19:39:19.285Z,99906.77
2023-04-07T19:41:48.381Z,99908.80
2023-04-07T19:44:18.293Z,99905.77
2023-04-07T19:46:46.412Z,99908.17
2023-04-07T19:49:14.608Z,99911.45
2023-04-07T19:51:43.271Z,99909.98
2023-04-07T19:54:12.212Z,99912.91
2023-04-07T19:56:40.652Z,99915.68
2023-04-07T19:59:09.677Z,99915.34
2023-04-07T20:01:38.186Z,99914.10
2023-04-07T20:04:06.604Z,99914.09
2023-04-07T20:06:36.797Z,99915.19
2023-04-07T20:09:04.995Z,99912.10
2023-04-07T20:11:33.055Z,99912.25
2023-04-07T20:14:04.494Z,99913.48
2023-04-07T20:16:32.893Z,99913.02
2023-04-07T20:19:01.097Z,99916.27
2023-04-07T20:21:32.418Z,99913.30
2023-04-07T20:24:00.761Z,99916.16
2023-04-07T20:26:28.861Z,99919.91
2023-04-07T20:28:56.906Z,99920.77
2023-04-07T20:31:25.424Z,99915.36
2023-04-07T20:33:53.578Z,99913.05
2023-04-07T20:36:21.900Z,99918.08
2023-04-07T20:38:50.560Z,99916.38
2023-04-07T20:41:22.326Z,99915.77
2023-04-07T20:43:51.941Z,99914.98
2023-04-07T20:46:21.392Z,99916.16
2023-04-07T20:48:49.856Z,99918.27
2023-04-07T20:51:18.275Z,99918.13
2023-04-07T20:53:48.510Z,99919.52
2023-04-07T20:56:16.554Z,99917.46
2023-04-07T20:58:48.259Z,99913.30
2023-04-07T21:01:16.765Z,99911.38
2023-04-07T21:03:45.245Z,99913.29
2023-04-07T21:06:13.840Z,99912.89
2023-04-07T21:08:42.092Z,99910.08
2023-04-07T21:11:10.423Z,99911.59
2023-04-07T21:13:38.475Z,99913.15
2023-04-07T21:16:06.907Z,99911.89
2023-04-07T21:18:35.998Z,99913.60
2023-04-07T21:21:04.463Z,99913.08
2023-04-07T21:23:32.764Z,99913.41
2023-04-07T21:26:02.315Z,99910.80
2023-04-07T21:28:34.634Z,99908.87
2023-04-07T21:31:04.072Z,99909.79
2023-04-07T21:33:32.600Z,99911.39
2023-04-07T21:36:05.448Z,99911.58
2023-04-07T21:38:33.822Z,99911.45
2023-04-07T21:41:02.187Z,99913.77
2023-04-07T21:43:30.628Z,99912.77
2023-04-07T21:46:01.393Z,99912.79
2023-04-07T21:48:30.361Z,99908.09
2023-04-07T21:50:58.570Z,99907.40
2023-04-07T21:53:27.429Z,99905.68
2023-04-07T21:55:55.474Z,99906.07
2023-04-07T21:58:25.389Z,99903.75
2023-04-07T22:00:54.608Z,99902.75
2023-04-07T22:03:23.846Z,99898.91
2023-04-07T22:06:00.059Z,99902.11
2023-04-07T22:08:28.850Z,99899.04
2023-04-07T22:10:58.762Z,99898.92
2023-04-07T22:13:27.393Z,99898.42
2023-04-07T22:15:55.885Z,99899.50
2023-04-07T22:18:23.935Z,99900.36
2023-04-07T22:20:54.843Z,99900.85
2023-04-07T22:23:23.044Z,99897.70
2023-04-07T22:25:52.842Z,99894.55
2023-04-07T22:28:22.268Z,99892.64
2023-04-07T22:30:50.375Z,99893.34
2023-04-07T22:33:19.838Z,99894.39
2023-04-07T22:35:48.567Z,99892.09
2023-04-07T22:38:19.768Z,99892.59
2023-04-07T22:40:47.899Z,99887.70
2023-04-07T22:43:16.236Z,99885.25
2023-04-07T22:45:44.483Z,99879.17
2023-04-07T22:48:12.746Z,99881.46
2023-04-07T22:50:43.695Z,99878.33
2023-04-07T22:53:11.781Z,99881.39
2023-04-07T22:55:40.108Z,99887.77
2023-04-07T22:58:08.182Z,99883.97
2023-04-07T23:00:36.509Z,99882.58
2023-04-07T23:03:08.011Z,99879.96
2023-04-07T23:05:37.147Z,99878.60
2023-04-07T23:08:05.286Z,99875.17
2023-04-07T23:10:33.366Z,99872.03
2023-04-07T23:13:02.116Z,99871.33
2023-04-07T23:15:30.410Z,99871.52
2023-04-07T23:18:03.781Z,99867.82
2023-04-07T23:20:32.435Z,99865.39
2023-04-07T23:23:04.683Z,99863.59
2023-04-07T23:25:34.948Z,99860.45
2023-04-07T23:28:03.114Z,99861.33
2023-04-07T23:30:31.537Z,99862.35
2023-04-07T23:33:00.837Z,99862.52
2023-04-07T23:35:29.568Z,99866.20
2023-04-07T23:37:59.071Z,99862.88
2023-04-07T23:40:27.524Z,99864.81
2023-04-07T23:42:56.948Z,99865.53
2023-04-07T23:45:25.232Z,99866.44
2023-04-07T23:47:54.030Z,99867.00
2023-04-07T23:50:23.122Z,99865.33
2023-04-07T23:52:51.175Z,99869.42
2023-04-07T23:55:19.816Z,99868.07
2023-04-07T23:57:48.195Z,99863.42
